Time;durP1;ratioP1;P1;durP2;ratioP2;P2;SDS_P1;SDS_P2;PMS_P1;PMS_P2;Temp;Humidity;BMP_temperature;BMP_pressure;BME280_temperature;BME280_humidity;BME280_pressure;Samples;Min_cycle;Max_cycle;Signal;HPM_P1;HPM_P2
2023/01/20 00:01:30;;;;;;;11.97;5.83;;;5.10;75.60;;;;;;5096798;28;20042;-74
2023/01/20 00:03:57;;;;;;;10.93;5.70;;;5.10;75.60;;;;;;5115257;28;20023;-74
2023/01/20 00:06:26;;;;;;;10.70;5.53;;;5.10;75.60;;;;;;5115270;28;20020;-74
2023/01/20 00:08:53;;;;;;;13.10;6.53;;;5.10;75.60;;;;;;5098649;28;20027;-74
2023/01/20 00:11:20;;;;;;;11.33;5.83;;;5.10;75.70;;;;;;5116479;28;20333;-74
2023/01/20 00:13:46;;;;;;;12.67;5.70;;;5.10;75.70;;;;;;5114627;28;20076;-75
2023/01/20 00:16:12;;;;;;;12.67;7.20;;;5.10;75.70;;;;;;5114297;28;20028;-74
2023/01/20 00:18:39;;;;;;;12.63;7.27;;;5.10;75.70;;;;;;5090928;28;20365;-74
2023/01/20 00:21:10;;;;;;;13.87;7.00;;;5.10;75.70;;;;;;5091911;28;20023;-74
2023/01/20 00:23:37;;;;;;;15.05;8.02;;;5.10;75.70;;;;;;5100477;28;20024;-75
2023/01/20 00:26:09;;;;;;;14.20;8.70;;;5.10;75.80;;;;;;5099077;28;20049;-74
2023/01/20 00:28:35;;;;;;;17.63;9.52;;;5.10;75.80;;;;;;5107723;28;20020;-74
2023/01/20 00:31:09;;;;;;;16.57;10.13;;;5.10;75.80;;;;;;5116382;28;20027;-74
2023/01/20 00:33:35;;;;;;;16.80;9.83;;;5.10;75.80;;;;;;5114040;28;20047;-74
2023/01/20 00:36:01;;;;;;;18.50;11.00;;;5.10;75.80;;;;;;5115143;28;20349;-74
2023/01/20 00:38:27;;;;;;;21.23;12.93;;;5.10;75.90;;;;;;5113785;28;20084;-74
2023/01/20 00:40:56;;;;;;;20.57;12.33;;;5.10;75.90;;;;;;5101319;28;20030;-75
2023/01/20 00:43:22;;;;;;;20.87;12.07;;;5.10;75.90;;;;;;5119217;27;20352;-74
2023/01/20 00:45:48;;;;;;;23.40;13.40;;;5.10;76.00;;;;;;5126839;27;20023;-74
2023/01/20 00:48:14;;;;;;;22.77;13.80;;;5.10;76.00;;;;;;5113601;28;20039;-74
2023/01/20 00:50:40;;;;;;;24.07;13.93;;;5.10;76.00;;;;;;5124605;27;20024;-74
2023/01/20 00:53:05;;;;;;;22.07;13.37;;;5.10;76.00;;;;;;5130207;27;20023;-75
2023/01/20 00:55:31;;;;;;;27.03;15.03;;;5.10;76.00;;;;;;5113610;28;20027;-74
2023/01/20 00:58:02;;;;;;;23.77;13.70;;;5.10;76.00;;;;;;5114259;28;20024;-74
2023/01/20 01:00:28;;;;;;;24.98;14.68;;;5.20;76.00;;;;;;5106501;28;20019;-74
2023/01/20 01:02:53;;;;;;;23.93;15.03;;;5.20;76.00;;;;;;5114563;28;20047;-74
2023/01/20 01:05:21;;;;;;;24.93;14.57;;;5.20;76.00;;;;;;5099568;28;20020;-73
2023/01/20 01:07:47;;;;;;;26.37;15.17;;;5.10;75.90;;;;;;5094635;28;20043;-74
2023/01/20 01:10:13;;;;;;;27.03;15.90;;;5.10;75.90;;;;;;5098347;28;20039;-74
2023/01/20 01:12:39;;;;;;;25.23;15.20;;;5.20;75.90;;;;;;5094084;28;20453;-74
2023/01/20 01:15:05;;;;;;;26.43;14.87;;;5.20;75.90;;;;;;5106908;28;20107;-75
2023/01/20 01:17:31;;;;;;;26.13;14.23;;;5.20;75.90;;;;;;5100197;28;20445;-74
2023/01/20 01:19:57;;;;;;;27.90;15.77;;;5.20;75.90;;;;;;5114420;28;20027;-74
2023/01/20 01:22:22;;;;;;;27.97;15.67;;;5.20;75.90;;;;;;5111610;28;20508;-74
2023/01/20 01:24:48;;;;;;;27.63;15.73;;;5.20;75.80;;;;;;5093796;28;20342;-74
2023/01/20 01:27:14;;;;;;;25.70;16.60;;;5.20;75.80;;;;;;5113825;28;21181;-74
2023/01/20 01:29:40;;;;;;;28.40;15.87;;;5.20;75.80;;;;;;5113089;28;20457;-74
2023/01/20 01:32:06;;;;;;;24.33;14.10;;;5.20;75.70;;;;;;5114366;28;20092;-74
2023/01/20 01:34:32;;;;;;;24.90;14.97;;;5.20;75.70;;;;;;5112203;28;20118;-74
2023/01/20 01:36:59;;;;;;;23.60;14.60;;;5.20;75.70;;;;;;5112669;28;20434;-74
2023/01/20 01:39:24;;;;;;;25.13;13.83;;;5.20;75.70;;;;;;5099077;28;20118;-74
2023/01/20 01:41:50;;;;;;;24.77;15.40;;;5.20;75.70;;;;;;5114290;28;20058;-74
2023/01/20 01:44:16;;;;;;;25.37;13.97;;;5.20;75.80;;;;;;5113858;28;20443;-74
2023/01/20 01:46:42;;;;;;;21.47;13.47;;;5.20;75.70;;;;;;5097505;28;20031;-74
2023/01/20 01:49:28;;;;;;;20.83;12.83;;;5.20;75.80;;;;;;5109093;28;20077;-74
2023/01/20 01:51:58;;;;;;;23.33;14.03;;;5.20;75.70;;;;;;5113257;28;20027;-74
2023/01/20 01:54:30;;;;;;;21.67;13.13;;;5.20;75.70;;;;;;5105350;28;20020;-74
2023/01/20 01:56:56;;;;;;;22.30;12.70;;;5.20;75.70;;;;;;5125489;27;20123;-74
2023/01/20 01:59:22;;;;;;;23.53;13.60;;;5.20;75.70;;;;;;5108127;28;20161;-74
2023/01/20 02:01:51;;;;;;;22.57;12.77;;;5.20;75.70;;;;;;5104904;28;20038;-74
2023/01/20 02:04:22;;;;;;;23.53;13.87;;;5.10;75.70;;;;;;5115106;28;20076;-74
2023/01/20 02:06:58;;;;;;;19.83;12.30;;;5.20;75.70;;;;;;5093306;28;20431;-74
2023/01/20 02:09:26;;;;;;;22.13;13.63;;;5.10;76.30;;;;;;5113931;28;20444;-74
2023/01/20 02:11:56;;;;;;;24.73;14.30;;;5.10;75.70;;;;;;5108804;28;20032;-74
2023/01/20 02:14:27;;;;;;;23.93;13.93;;;5.10;75.70;;;;;;5113891;28;20027;-74
2023/01/20 02:17:02;;;;;;;22.13;13.18;;;5.20;75.80;;;;;;5107744;28;20430;-74
2023/01/20 02:20:05;;;;;;;22.07;13.47;;;5.10;75.70;;;;;;5110766;28;20051;-74
2023/01/20 02:23:05;;;;;;;22.47;13.13;;;5.20;75.70;;;;;;5105445;28;20456;-74
2023/01/20 02:26:04;;;;;;;22.37;12.57;;;5.10;75.60;;;;;;5112369;28;20019;-74
2023/01/20 02:28:48;;;;;;;20.80;12.83;;;5.10;75.60;;;;;;5105721;28;20031;-74
2023/01/20 02:31:40;;;;;;;20.43;11.77;;;5.10;75.70;;;;;;5108905;28;20110;-74
2023/01/20 02:34:25;;;;;;;22.27;11.13;;;5.10;75.70;;;;;;5114474;28;20197;-74
2023/01/20 02:36:56;;;;;;;22.20;11.97;;;5.10;75.80;;;;;;5111448;28;20030;-74
2023/01/20 02:39:37;;;;;;;20.65;12.32;;;5.10;75.80;;;;;;5111036;28;20491;-74
2023/01/20 02:42:13;;;;;;;;;;;5.10;75.80;;;;;;5116776;28;20102;-74
2023/01/20 02:44:50;;;;;;;18.90;10.47;;;5.10;75.80;;;;;;5105004;28;20327;-74
2023/01/20 02:47:24;;;;;;;18.10;10.53;;;5.10;75.80;;;;;;5113253;28;20051;-75
2023/01/20 02:50:10;;;;;;;19.20;10.97;;;5.00;75.70;;;;;;5107561;28;20456;-75
2023/01/20 02:52:45;;;;;;;20.03;12.00;;;5.00;75.70;;;;;;5102355;28;20020;-74
2023/01/20 02:55:19;;;;;;;21.10;11.90;;;5.00;75.70;;;;;;5116985;28;20023;-74
2023/01/20 02:57:53;;;;;;;19.80;12.23;;;5.10;75.80;;;;;;5115682;28;20044;-74
2023/01/20 03:00:28;;;;;;;19.10;11.50;;;5.10;75.80;;;;;;5116660;28;20383;-74
2023/01/20 03:02:58;;;;;;;18.93;11.23;;;5.10;75.70;;;;;;5108448;28;20390;-74
2023/01/20 03:05:31;;;;;;;21.67;12.67;;;5.10;75.70;;;;;;5103894;28;20024;-74
2023/01/20 03:07:59;;;;;;;21.73;12.27;;;5.10;75.80;;;;;;5101585;28;20028;-75
2023/01/20 03:10:28;;;;;;;20.90;12.30;;;5.10;75.80;;;;;;5111566;28;20368;-74
2023/01/20 03:12:58;;;;;;;20.13;11.73;;;5.10;75.90;;;;;;5110535;28;20165;-74
2023/01/20 03:15:33;;;;;;;24.60;13.37;;;5.10;75.90;;;;;;5117438;28;20452;-74
2023/01/20 03:17:59;;;;;;;24.27;13.93;;;5.10;75.90;;;;;;5114830;28;20024;-74
2023/01/20 03:20:25;;;;;;;23.87;12.53;;;5.10;75.90;;;;;;5116146;28;20136;-74
2023/01/20 03:22:51;;;;;;;21.40;13.00;;;5.10;75.80;;;;;;5110287;28;20020;-74
2023/01/20 03:25:18;;;;;;;22.97;13.57;;;5.10;75.80;;;;;;5117798;28;20452;-74
2023/01/20 03:27:46;;;;;;;22.20;13.43;;;5.10;75.80;;;;;;5114697;28;20375;-74
2023/01/20 03:30:14;;;;;;;23.40;14.63;;;5.00;75.80;;;;;;5112704;28;20028;-74
2023/01/20 03:32:43;;;;;;;29.20;14.20;;;5.10;75.80;;;;;;5117114;28;20028;-74
2023/01/20 03:35:11;;;;;;;24.67;14.97;;;5.00;76.40;;;;;;5133011;27;20126;-74
2023/01/20 03:37:36;;;;;;;24.37;14.00;;;5.00;75.80;;;;;;5114126;28;20023;-74
2023/01/20 03:40:03;;;;;;;24.37;14.27;;;5.00;75.80;;;;;;5112854;28;20031;-74
2023/01/20 03:42:38;;;;;;;24.27;13.70;;;5.00;75.90;;;;;;5114008;28;20027;-75
2023/01/20 03:45:19;;;;;;;26.93;15.33;;;5.00;75.80;;;;;;5116586;28;20077;-74
2023/01/20 03:48:12;;;;;;;24.83;14.93;;;5.00;75.80;;;;;;5096837;28;20023;-74
2023/01/20 03:50:54;;;;;;;25.87;15.07;;;5.00;75.80;;;;;;5102656;28;20363;-74
2023/01/20 03:53:23;;;;;;;27.23;14.67;;;5.00;75.80;;;;;;5100397;28;20020;-75
2023/01/20 03:56:11;;;;;;;31.07;16.03;;;5.00;75.90;;;;;;5110699;28;20085;-75
2023/01/20 03:58:41;;;;;;;27.53;15.57;;;5.00;75.80;;;;;;5099838;28;20035;-74
2023/01/20 04:01:10;;;;;;;30.30;16.00;;;5.00;75.90;;;;;;5095232;28;20020;-75
2023/01/20 04:03:43;;;;;;;31.53;16.47;;;5.00;75.80;;;;;;5114651;28;20437;-75
2023/01/20 04:06:13;;;;;;;27.40;15.63;;;5.00;75.80;;;;;;5131052;27;20039;-75
2023/01/20 04:08:48;;;;;;;32.50;17.17;;;4.90;75.70;;;;;;5115940;28;20112;-75
2023/01/20 04:11:14;;;;;;;32.83;17.30;;;4.90;75.80;;;;;;5100205;28;20073;-75
2023/01/20 04:13:40;;;;;;;30.03;16.67;;;5.00;75.80;;;;;;5116300;28;20028;-75
2023/01/20 04:16:12;;;;;;;32.10;16.83;;;5.00;75.80;;;;;;5116272;28;20495;-75
2023/01/20 04:18:44;;;;;;;30.77;17.40;;;4.90;75.80;;;;;;5115172;28;20088;-75
2023/01/20 04:21:18;;;;;;;31.40;16.50;;;4.90;75.80;;;;;;5112034;28;20085;-74
2023/01/20 04:24:12;;;;;;;32.90;17.97;;;5.00;75.80;;;;;;5115153;28;20016;-74
2023/01/20 04:26:38;;;;;;;34.03;18.23;;;4.90;75.70;;;;;;5115356;28;20024;-75
2023/01/20 04:29:07;;;;;;;33.77;17.87;;;4.90;75.80;;;;;;5114825;28;20035;-75
2023/01/20 04:31:34;;;;;;;35.10;17.50;;;4.90;75.80;;;;;;5112699;28;20063;-75
2023/01/20 04:34:01;;;;;;;33.30;17.60;;;4.90;75.80;;;;;;5115466;28;20066;-75
2023/01/20 04:36:27;;;;;;;38.73;17.80;;;4.90;75.80;;;;;;5114767;28;20471;-75
2023/01/20 04:38:52;;;;;;;36.47;17.70;;;4.90;75.80;;;;;;5116416;28;20028;-75
2023/01/20 04:41:18;;;;;;;30.43;17.80;;;4.90;75.80;;;;;;5113139;28;20020;-75
2023/01/20 04:43:45;;;;;;;35.33;19.07;;;4.90;75.80;;;;;;5115234;28;20107;-75
2023/01/20 04:46:14;;;;;;;38.57;19.43;;;4.90;75.80;;;;;;5114657;28;20039;-75
2023/01/20 04:48:40;;;;;;;32.03;17.13;;;4.90;75.80;;;;;;5098202;28;20024;-75
2023/01/20 04:51:09;;;;;;;33.57;17.23;;;4.90;75.80;;;;;;5111166;28;20115;-75
2023/01/20 04:53:35;;;;;;;34.43;17.03;;;4.90;75.80;;;;;;5093656;28;20043;-75
2023/01/20 04:56:01;;;;;;;35.83;17.60;;;4.90;75.80;;;;;;5114838;28;20016;-75
2023/01/20 04:58:27;;;;;;;37.17;18.10;;;4.80;75.70;;;;;;5115001;28;20030;-75
2023/01/20 05:00:52;;;;;;;39.53;19.03;;;4.80;76.40;;;;;;5101941;28;20026;-75
2023/01/20 05:03:20;;;;;;;33.70;17.17;;;4.90;75.80;;;;;;5112719;28;20113;-75
2023/01/20 05:05:53;;;;;;;36.47;17.70;;;4.80;75.70;;;;;;5115197;27;20023;-75
2023/01/20 05:08:19;;;;;;;34.93;17.03;;;4.80;75.60;;;;;;5114809;28;20035;-75
2023/01/20 05:10:45;;;;;;;29.13;14.90;;;4.90;75.70;;;;;;5102156;27;20042;-75
2023/01/20 05:13:10;;;;;;;33.23;16.80;;;4.90;75.70;;;;;;5093447;28;20034;-75
2023/01/20 05:15:37;;;;;;;37.63;17.77;;;4.90;75.60;;;;;;5108954;28;20016;-75
2023/01/20 05:18:03;;;;;;;31.10;16.60;;;4.80;75.60;;;;;;5091238;28;20035;-75
2023/01/20 05:20:29;;;;;;;34.80;17.03;;;4.90;75.60;;;;;;5111142;28;20020;-75
2023/01/20 05:22:57;;;;;;;29.00;16.30;;;4.90;75.60;;;;;;5094385;28;20498;-75
2023/01/20 05:25:23;;;;;;;32.77;17.10;;;4.80;75.50;;;;;;5110558;27;20015;-75
2023/01/20 05:27:49;;;;;;;30.50;16.63;;;4.90;75.60;;;;;;5101958;27;20123;-75
2023/01/20 05:30:15;;;;;;;33.77;16.83;;;4.90;75.60;;;;;;5106392;27;20400;-75
2023/01/20 05:32:41;;;;;;;31.63;16.27;;;4.90;75.60;;;;;;5118921;27;20031;-75
2023/01/20 05:35:08;;;;;;;32.03;17.20;;;4.80;75.50;;;;;;5115846;27;20046;-75
2023/01/20 05:37:33;;;;;;;32.57;16.67;;;4.90;75.60;;;;;;5117254;27;20027;-75
2023/01/20 05:39:59;;;;;;;29.97;16.63;;;4.80;75.40;;;;;;5111181;27;20015;-75
2023/01/20 05:42:25;;;;;;;29.30;15.97;;;4.80;75.40;;;;;;5106019;27;20391;-75
2023/01/20 05:44:51;;;;;;;29.37;15.43;;;4.80;75.40;;;;;;5109318;27;20023;-75
2023/01/20 05:47:17;;;;;;;31.87;16.53;;;4.80;75.50;;;;;;5116054;27;20103;-75
2023/01/20 05:49:43;;;;;;;28.67;14.60;;;4.80;75.50;;;;;;5109645;27;20051;-74
2023/01/20 05:52:08;;;;;;;29.60;15.67;;;4.80;75.50;;;;;;5117137;27;20016;-76
2023/01/20 05:54:34;;;;;;;27.53;15.27;;;4.80;75.50;;;;;;5111677;27;20412;-75
2023/01/20 05:57:00;;;;;;;29.43;15.13;;;4.80;75.40;;;;;;5095458;28;20039;-75
2023/01/20 05:59:26;;;;;;;28.37;15.33;;;4.80;75.40;;;;;;5099940;28;20070;-75
2023/01/20 06:01:52;;;;;;;28.90;14.83;;;4.80;75.40;;;;;;5112173;27;20024;-75
2023/01/20 06:04:17;;;;;;;28.80;14.83;;;4.80;75.40;;;;;;5111075;28;20068;-75
2023/01/20 06:06:43;;;;;;;29.70;14.37;;;4.80;75.40;;;;;;5109387;28;20097;-75
2023/01/20 06:09:09;;;;;;;26.87;14.97;;;4.80;75.40;;;;;;5110334;28;20114;-76
2023/01/20 06:11:35;;;;;;;27.33;14.57;;;4.80;75.50;;;;;;5114781;28;20464;-75
2023/01/20 06:14:05;;;;;;;28.27;14.13;;;4.80;75.40;;;;;;5111217;28;20037;-75
2023/01/20 06:16:30;;;;;;;27.70;14.43;;;4.80;75.40;;;;;;5112351;28;20024;-75
2023/01/20 06:18:56;;;;;;;28.93;15.00;;;4.80;75.40;;;;;;5112845;28;20028;-73
2023/01/20 06:21:23;;;;;;;31.43;15.50;;;4.70;75.40;;;;;;5113995;28;20034;-74
2023/01/20 06:23:52;;;;;;;25.73;13.60;;;4.70;75.30;;;;;;5114043;28;20092;-73
2023/01/20 06:26:17;;;;;;;27.43;13.50;;;4.70;75.30;;;;;;5099539;28;20042;-73
2023/01/20 06:28:43;;;;;;;27.73;15.17;;;4.70;75.30;;;;;;5112813;28;20455;-73
2023/01/20 06:31:12;;;;;;;30.23;14.67;;;4.70;75.30;;;;;;5114761;28;20355;-73
2023/01/20 06:33:40;;;;;;;26.23;14.20;;;4.70;75.20;;;;;;5113803;28;20034;-73
2023/01/20 06:36:07;;;;;;;29.13;13.83;;;4.70;75.20;;;;;;5114640;28;20066;-73
2023/01/20 06:38:34;;;;;;;26.37;13.33;;;4.70;75.20;;;;;;5113570;28;20032;-73
2023/01/20 06:41:06;;;;;;;29.83;14.97;;;4.60;75.30;;;;;;5114874;28;20019;-74
2023/01/20 06:43:33;;;;;;;26.70;13.45;;;4.70;75.40;;;;;;5113763;28;20019;-73
2023/01/20 06:46:04;;;;;;;27.07;15.40;;;4.70;75.30;;;;;;5113476;28;20123;-73
2023/01/20 06:48:31;;;;;;;27.45;14.35;;;4.60;75.20;;;;;;5111828;28;20058;-74
2023/01/20 06:51:05;;;;;;;26.20;13.73;;;4.70;75.30;;;;;;5106194;28;20059;-74
2023/01/20 06:53:31;;;;;;;28.80;13.93;;;4.70;75.30;;;;;;5096424;28;20015;-74
2023/01/20 06:55:58;;;;;;;28.93;14.43;;;4.70;75.20;;;;;;5111398;28;20509;-73
2023/01/20 06:58:26;;;;;;;27.57;14.53;;;4.60;75.20;;;;;;5102683;28;20039;-73
2023/01/20 07:00:52;;;;;;;26.77;14.13;;;4.70;75.20;;;;;;5107530;28;20020;-74
2023/01/20 07:03:18;;;;;;;30.03;15.47;;;4.60;75.20;;;;;;5108449;28;20102;-73
2023/01/20 07:05:58;;;;;;;27.47;14.63;;;4.70;75.30;;;;;;5110192;28;20027;-76
2023/01/20 07:08:24;;;;;;;28.63;15.00;;;4.70;75.30;;;;;;5109602;28;20023;-76
2023/01/20 07:10:50;;;;;;;29.00;14.33;;;4.70;75.30;;;;;;5111562;28;20130;-75
2023/01/20 07:13:16;;;;;;;27.60;13.83;;;4.80;75.20;;;;;;5112091;28;20119;-74
2023/01/20 07:15:42;;;;;;;28.47;15.20;;;4.80;75.10;;;;;;5109672;28;20040;-74
2023/01/20 07:18:08;;;;;;;32.60;16.33;;;4.80;75.10;;;;;;5108095;28;20028;-74
2023/01/20 07:20:34;;;;;;;31.73;16.03;;;4.70;75.10;;;;;;5108039;28;20096;-74
2023/01/20 07:23:00;;;;;;;30.77;15.17;;;4.70;75.10;;;;;;5099769;28;20020;-74
2023/01/20 07:25:26;;;;;;;30.97;16.43;;;4.70;75.10;;;;;;5112836;28;20027;-74
2023/01/20 07:27:52;;;;;;;33.07;17.63;;;4.60;75.30;;;;;;5101961;28;20032;-74
2023/01/20 07:30:18;;;;;;;34.63;16.77;;;4.70;75.30;;;;;;5110231;28;20043;-74
2023/01/20 07:32:47;;;;;;;30.43;16.37;;;4.60;75.30;;;;;;5099402;28;20432;-73
2023/01/20 07:35:28;;;;;;;29.83;15.90;;;4.70;75.30;;;;;;5085324;27;20058;-74
2023/01/20 07:37:54;;;;;;;31.63;15.90;;;4.70;75.30;;;;;;5117112;27;20039;-74
2023/01/20 07:40:20;;;;;;;34.60;16.40;;;4.70;75.30;;;;;;5112815;27;20027;-74
2023/01/20 07:42:46;;;;;;;32.00;17.90;;;4.70;75.20;;;;;;5110932;27;20024;-73
2023/01/20 07:45:12;;;;;;;32.53;17.17;;;4.70;75.20;;;;;;5116813;27;20027;-72
2023/01/20 07:47:37;;;;;;;32.47;17.33;;;4.70;75.20;;;;;;5113847;27;20443;-72
2023/01/20 07:50:04;;;;;;;29.53;16.13;;;4.70;75.20;;;;;;5099800;28;20031;-71
2023/01/20 07:52:29;;;;;;;28.70;15.47;;;4.70;75.10;;;;;;5110354;27;20104;-73
2023/01/20 07:54:55;;;;;;;31.20;17.27;;;4.70;75.10;;;;;;5113342;28;20027;-75
2023/01/20 07:57:22;;;;;;;30.20;16.40;;;4.70;75.10;;;;;;5113800;28;20031;-75
2023/01/20 07:59:48;;;;;;;32.10;15.80;;;4.70;75.20;;;;;;5111124;28;20026;-74
2023/01/20 08:02:14;;;;;;;31.60;15.87;;;4.70;75.20;;;;;;5116441;27;20166;-74
2023/01/20 08:04:40;;;;;;;33.43;16.03;;;4.70;75.30;;;;;;5115722;28;20024;-74
2023/01/20 08:07:06;;;;;;;32.17;17.07;;;4.60;75.20;;;;;;5117126;28;20084;-74
2023/01/20 08:09:31;;;;;;;33.93;17.00;;;4.70;75.30;;;;;;5118234;28;20035;-74
2023/01/20 08:11:57;;;;;;;32.77;16.43;;;4.70;75.30;;;;;;5119085;28;20024;-74
2023/01/20 08:14:23;;;;;;;32.20;17.27;;;4.70;75.20;;;;;;5117710;27;20034;-73
2023/01/20 08:16:49;;;;;;;32.67;16.40;;;4.70;75.20;;;;;;5116444;27;20024;-73
2023/01/20 08:19:15;;;;;;;34.70;16.83;;;4.70;75.20;;;;;;5113715;27;20106;-74
2023/01/20 08:21:40;;;;;;;32.20;17.33;;;4.70;75.20;;;;;;5093960;28;20393;-73
2023/01/20 08:24:06;;;;;;;33.97;18.63;;;4.70;75.20;;;;;;5113416;27;20012;-74
2023/01/20 08:26:32;;;;;;;29.93;15.23;;;4.70;75.10;;;;;;5113996;28;20476;-73
2023/01/20 08:29:08;;;;;;;36.13;18.30;;;4.70;75.20;;;;;;5113520;28;20035;-73
2023/01/20 08:31:35;;;;;;;33.80;18.40;;;4.70;75.20;;;;;;5114459;28;20294;-74
2023/01/20 08:34:01;;;;;;;34.30;17.30;;;4.70;75.20;;;;;;5115005;27;20452;-74
2023/01/20 08:36:34;;;;;;;35.37;17.53;;;4.70;75.20;;;;;;5118697;27;20412;-74
2023/01/20 08:39:02;;;;;;;33.83;17.57;;;4.70;75.30;;;;;;5116184;27;20027;-74
2023/01/20 08:41:31;;;;;;;36.80;19.00;;;4.70;75.30;;;;;;5096440;28;20040;-74
2023/01/20 08:43:58;;;;;;;35.77;16.67;;;4.70;75.30;;;;;;5113044;27;20024;-74
2023/01/20 08:46:25;;;;;;;35.57;18.33;;;4.70;75.30;;;;;;5114456;27;20051;-74
2023/01/20 08:48:51;;;;;;;30.70;17.27;;;4.70;75.40;;;;;;5113973;27;20023;-73
2023/01/20 08:51:26;;;;;;;33.77;17.50;;;4.70;75.40;;;;;;5111160;27;20408;-74
2023/01/20 08:53:52;;;;;;;31.87;16.50;;;4.70;75.40;;;;;;5106223;28;20028;-74
2023/01/20 08:56:18;;;;;;;39.63;18.73;;;4.70;75.40;;;;;;5112873;27;20381;-74
2023/01/20 08:58:45;;;;;;;34.63;16.47;;;4.70;75.40;;;;;;5112754;27;20028;-74
2023/01/20 09:01:14;;;;;;;36.50;18.20;;;4.70;75.40;;;;;;5103657;28;20400;-74
2023/01/20 09:03:40;;;;;;;35.23;17.77;;;4.70;75.40;;;;;;5112899;28;20337;-74
2023/01/20 09:06:08;;;;;;;34.93;17.60;;;4.80;75.50;;;;;;5114906;28;20069;-74
2023/01/20 09:08:36;;;;;;;38.77;18.23;;;4.70;75.40;;;;;;5111780;27;20179;-74
2023/01/20 09:11:05;;;;;;;30.83;15.93;;;4.80;75.60;;;;;;5114624;27;20140;-74
2023/01/20 09:13:31;;;;;;;30.63;16.60;;;4.80;75.60;;;;;;5077613;28;20043;-73
2023/01/20 09:16:01;;;;;;;34.53;18.50;;;4.80;75.50;;;;;;5104200;28;20072;-72
2023/01/20 09:18:26;;;;;;;32.90;16.07;;;4.80;75.50;;;;;;5105597;28;20260;-75
2023/01/20 09:20:52;;;;;;;31.10;16.87;;;4.90;75.50;;;;;;5109202;28;20527;-75
2023/01/20 09:23:18;;;;;;;32.23;17.73;;;4.80;75.40;;;;;;5108653;28;20035;-75
2023/01/20 09:25:44;;;;;;;36.13;18.87;;;4.90;75.40;;;;;;5111880;28;20023;-75
2023/01/20 09:28:10;;;;;;;31.60;16.67;;;4.90;75.40;;;;;;5077359;28;20042;-75
2023/01/20 09:30:36;;;;;;;36.00;16.10;;;4.90;75.40;;;;;;5111441;28;20023;-74
2023/01/20 09:33:02;;;;;;;31.37;16.83;;;4.90;75.40;;;;;;5100561;28;20466;-74
2023/01/20 09:35:29;;;;;;;35.47;17.53;;;4.90;75.50;;;;;;5111342;28;20083;-74
2023/01/20 09:44:23;;;;;;;28.37;15.23;;;5.00;75.50;;;;;;5079491;28;20028;-75
2023/01/20 09:47:41;;;;;;;30.47;15.63;;;4.90;75.50;;;;;;5100521;28;20044;-74
2023/01/20 09:53:26;;;;;;;29.47;14.17;;;4.90;75.60;;;;;;5116227;27;20176;-75
2023/01/20 09:55:55;;;;;;;30.80;15.80;;;4.90;75.60;;;;;;5121416;27;20020;-74
2023/01/20 09:58:36;;;;;;;33.00;16.67;;;4.80;75.70;;;;;;5107291;28;20069;-73
2023/01/20 10:01:08;;;;;;;30.85;16.42;;;4.80;75.80;;;;;;5103595;28;20448;-73
2023/01/20 10:03:54;;;;;;;28.50;15.83;;;4.80;75.80;;;;;;5107336;28;20024;-73
2023/01/20 10:06:47;;;;;;;30.33;16.17;;;4.80;75.80;;;;;;5113737;27;20031;-72
2023/01/20 10:09:24;;;;;;;31.30;16.63;;;4.80;76.00;;;;;;5110821;28;20059;-73
2023/01/20 10:11:58;;;;;;;26.97;14.60;;;4.80;76.00;;;;;;5108473;28;20059;-72
2023/01/20 10:14:31;;;;;;;31.50;15.90;;;4.80;76.00;;;;;;5124414;27;20408;-73
2023/01/20 10:17:11;;;;;;;31.10;15.83;;;4.80;76.10;;;;;;5107726;27;20031;-72
2023/01/20 10:19:41;;;;;;;32.33;15.00;;;4.80;76.10;;;;;;5109984;28;20034;-74
2023/01/20 10:22:39;;;;;;;31.63;16.27;;;4.80;76.10;;;;;;5109632;28;20032;-73
2023/01/20 10:25:17;;;;;;;27.57;15.13;;;4.90;76.10;;;;;;5097365;28;20028;-73
2023/01/20 10:27:55;;;;;;;29.40;16.10;;;4.80;76.10;;;;;;5111270;28;20023;-73
2023/01/20 10:30:25;;;;;;;31.37;16.13;;;4.80;76.10;;;;;;5101247;28;20061;-73
2023/01/20 10:32:58;;;;;;;30.00;16.97;;;4.80;76.20;;;;;;5113515;28;20072;-73
2023/01/20 10:35:28;;;;;;;32.00;17.67;;;4.90;76.30;;;;;;5100823;28;20036;-73
2023/01/20 10:37:58;;;;;;;32.97;17.23;;;4.90;76.30;;;;;;5112111;28;20020;-74
2023/01/20 10:40:45;;;;;;;33.97;17.10;;;4.90;76.30;;;;;;5103624;28;20047;-74
2023/01/20 10:43:16;;;;;;;33.60;17.50;;;4.90;76.20;;;;;;5113856;28;20429;-74
2023/01/20 10:46:19;;;;;;;27.65;15.25;;;4.90;76.20;;;;;;5114020;28;20096;-74
2023/01/20 10:48:56;;;;;;;29.47;15.40;;;4.90;76.10;;;;;;5097114;28;20419;-74
2023/01/20 10:51:39;;;;;;;30.90;16.20;;;5.00;76.20;;;;;;5090815;28;20073;-74
2023/01/20 10:54:17;;;;;;;34.40;16.70;;;5.00;76.30;;;;;;5103081;28;20092;-74
2023/01/20 10:56:52;;;;;;;31.90;16.13;;;5.00;76.20;;;;;;5112687;28;20031;-74
2023/01/20 10:59:30;;;;;;;29.63;15.90;;;5.00;76.20;;;;;;5103966;28;20028;-74
2023/01/20 11:02:13;;;;;;;31.47;16.27;;;5.00;76.20;;;;;;5114710;28;20039;-74
2023/01/20 11:04:41;;;;;;;30.57;16.23;;;5.00;76.30;;;;;;5122241;27;20417;-74
2023/01/20 11:07:17;;;;;;;29.40;15.83;;;5.10;76.30;;;;;;5105173;28;20016;-74
2023/01/20 11:09:45;;;;;;;30.03;15.80;;;5.10;76.20;;;;;;5104368;28;20031;-74
2023/01/20 11:12:22;;;;;;;29.53;16.17;;;5.10;76.20;;;;;;5116069;28;20039;-74
2023/01/20 11:14:48;;;;;;;26.67;15.00;;;5.10;76.20;;;;;;5117908;28;20031;-76
2023/01/20 11:17:16;;;;;;;28.90;16.07;;;5.20;76.30;;;;;;5117730;28;20058;-75
2023/01/20 11:19:51;;;;;;;26.83;15.80;;;5.20;76.20;;;;;;5130722;27;20027;-75
2023/01/20 11:22:29;;;;;;;29.43;16.80;;;5.20;76.10;;;;;;5127988;27;20430;-76
2023/01/20 11:24:57;;;;;;;28.17;15.57;;;5.20;76.10;;;;;;5104971;28;20436;-76
2023/01/20 11:27:41;;;;;;;29.87;15.03;;;5.30;76.10;;;;;;5117185;28;20032;-76
2023/01/20 11:30:31;;;;;;;24.93;13.50;;;5.30;76.10;;;;;;5117832;28;20036;-75
2023/01/20 11:33:19;;;;;;;25.27;14.30;;;5.30;76.00;;;;;;5118077;28;20061;-75
2023/01/20 11:36:01;;;;;;;24.10;13.90;;;5.30;76.00;;;;;;5118122;28;20514;-75
2023/01/20 11:38:30;;;;;;;27.03;13.80;;;5.30;76.00;;;;;;5115493;28;20032;-75
2023/01/20 11:40:56;;;;;;;25.13;13.63;;;5.30;75.90;;;;;;5116658;28;20031;-75
2023/01/20 11:43:35;;;;;;;25.67;14.80;;;5.40;76.00;;;;;;5089852;28;20034;-73
2023/01/20 11:46:15;;;;;;;23.50;13.33;;;5.40;76.00;;;;;;5111828;28;20020;-74
2023/01/20 11:48:41;;;;;;;24.10;12.63;;;5.40;76.00;;;;;;5116512;28;20035;-74
2023/01/20 11:51:24;;;;;;;24.63;13.77;;;5.30;75.90;;;;;;5104872;28;20111;-76
2023/01/20 11:53:50;;;;;;;23.23;13.47;;;5.40;76.00;;;;;;5103899;28;20114;-74
2023/01/20 11:56:20;;;;;;;22.83;13.40;;;5.30;76.00;;;;;;5115999;28;20323;-74
2023/01/20 11:58:57;;;;;;;25.47;14.37;;;5.30;76.10;;;;;;5121650;27;20027;-74
2023/01/20 12:01:27;;;;;;;28.17;14.33;;;5.30;76.10;;;;;;5105774;28;20035;-74
2023/01/20 12:04:03;;;;;;;25.70;13.93;;;5.30;76.10;;;;;;5130723;27;20052;-74
2023/01/20 12:06:37;;;;;;;20.80;12.30;;;5.40;76.20;;;;;;5113318;28;20050;-74
2023/01/20 12:09:14;;;;;;;22.30;13.50;;;5.40;76.20;;;;;;5122060;28;20356;-73
2023/01/20 12:11:55;;;;;;;22.40;12.47;;;5.30;76.10;;;;;;5120260;28;20057;-73
2023/01/20 12:14:28;;;;;;;20.90;13.38;;;5.40;76.10;;;;;;5116318;28;20024;-74
2023/01/20 12:17:15;;;;;;;20.60;12.37;;;5.40;76.10;;;;;;5108183;28;20028;-73
2023/01/20 12:20:06;;;;;;;20.77;12.57;;;5.40;76.00;;;;;;5114715;28;20106;-75
2023/01/20 12:22:42;;;;;;;20.47;10.97;;;5.40;76.00;;;;;;5114077;28;20072;-74
2023/01/20 12:25:22;;;;;;;20.00;11.47;;;5.40;75.90;;;;;;5115964;28;20039;-73
2023/01/20 12:27:53;;;;;;;20.30;11.60;;;5.30;75.90;;;;;;5105989;28;20364;-75
2023/01/20 12:30:30;;;;;;;18.60;11.77;;;5.30;76.00;;;;;;5113806;28;20114;-73
2023/01/20 12:32:56;;;;;;;18.83;11.03;;;5.30;76.10;;;;;;5109269;28;20031;-74
2023/01/20 12:35:25;;;;;;;18.03;10.47;;;5.30;76.10;;;;;;5110635;28;20051;-73
2023/01/20 12:38:07;;;;;;;19.00;10.60;;;5.30;76.10;;;;;;5111325;28;20448;-74
2023/01/20 12:40:51;;;;;;;18.23;10.73;;;5.30;76.10;;;;;;5101893;28;20020;-73
2023/01/20 12:43:41;;;;;;;18.73;10.87;;;5.30;76.10;;;;;;5112338;28;20027;-72
2023/01/20 12:46:12;;;;;;;17.73;10.37;;;5.30;76.10;;;;;;5116176;28;20034;-73
2023/01/20 12:48:43;;;;;;;17.52;10.77;;;5.30;76.00;;;;;;5116874;28;20313;-73
2023/01/20 12:52:07;;;;;;;16.20;9.80;;;5.30;76.00;;;;;;5114649;28;20043;-74
2023/01/20 12:54:54;;;;;;;15.50;9.73;;;5.30;75.90;;;;;;5029502;28;20659;-73
2023/01/20 12:57:44;;;;;;;17.40;9.90;;;5.30;76.00;;;;;;5082075;28;20042;-73
2023/01/20 13:00:24;;;;;;;17.37;10.20;;;5.30;75.90;;;;;;5111105;28;20032;-73
2023/01/20 13:03:14;;;;;;;15.20;9.13;;;5.40;75.80;;;;;;5102644;28;20023;-72
2023/01/20 13:05:59;;;;;;;16.17;9.60;;;5.40;75.80;;;;;;5113790;28;20031;-73
2023/01/20 13:08:48;;;;;;;15.50;9.17;;;5.40;75.70;;;;;;5115466;28;20122;-73